Time;durP1;ratioP1;P1;durP2;ratioP2;P2;SDS_P1;SDS_P2;PMS_P1;PMS_P2;Temp;Humidity;BMP_temperature;BMP_pressure;BME280_temperature;BME280_humidity;BME280_pressure;Samples;Min_cycle;Max_cycle;Signal;HPM_P1;HPM_P2
2022/09/21 00:01:59;;;;;;;15.43;5.07;;;14.60;59.90;;;;;;5019585;28;20807;-88
2022/09/21 00:04:25;;;;;;;48.10;8.07;;;14.70;59.70;;;;;;5018965;28;20538;-88
2022/09/21 00:06:52;;;;;;;14.93;6.43;;;14.80;59.40;;;;;;5039223;28;20810;-87
2022/09/21 00:09:21;;;;;;;33.77;6.67;;;14.80;59.30;;;;;;5034360;28;20506;-87
2022/09/21 00:11:48;;;;;;;23.93;5.73;;;14.40;59.20;;;;;;5021807;28;20869;-87
2022/09/21 00:14:15;;;;;;;16.33;5.70;;;14.10;59.60;;;;;;5011158;28;21049;-88
2022/09/21 00:16:43;;;;;;;14.97;4.37;;;14.10;59.60;;;;;;5036681;28;22029;-88
2022/09/21 00:19:11;;;;;;;11.00;4.47;;;13.90;60.00;;;;;;5034810;28;20481;-88
2022/09/21 00:21:38;;;;;;;41.67;6.30;;;14.00;59.80;;;;;;5017186;28;20469;-88
2022/09/21 00:24:06;;;;;;;5.00;4.47;;;14.10;59.50;;;;;;5037510;28;20472;-88
2022/09/21 00:26:35;;;;;;;8.93;3.60;;;14.20;59.30;;;;;;5021234;28;21112;-88
2022/09/21 00:29:04;;;;;;;5.77;4.03;;;14.30;58.70;;;;;;5053053;28;20495;-88
2022/09/21 00:31:31;;;;;;;6.17;4.60;;;14.20;59.00;;;;;;5042091;28;21091;-88
2022/09/21 00:33:59;;;;;;;6.90;4.20;;;14.20;59.20;;;;;;5036550;28;20452;-87
2022/09/21 00:36:27;;;;;;;7.37;4.43;;;14.30;59.20;;;;;;5041634;28;20630;-88
2022/09/21 00:38:57;;;;;;;15.90;4.70;;;14.40;58.70;;;;;;5053399;28;20445;-89
2022/09/21 00:41:25;;;;;;;7.47;4.50;;;14.50;58.30;;;;;;5035643;28;20462;-88
2022/09/21 00:44:23;;;;;;;14.83;5.13;;;14.60;58.10;;;;;;5036811;28;20445;-89
2022/09/21 00:46:52;;;;;;;8.90;5.10;;;14.70;57.80;;;;;;5034579;28;20547;-88
2022/09/21 00:49:20;;;;;;;21.93;3.90;;;14.80;57.70;;;;;;5018085;28;20457;-88
2022/09/21 00:51:48;;;;;;;16.43;3.87;;;14.60;57.30;;;;;;5053698;28;20495;-87
2022/09/21 00:54:21;;;;;;;15.93;4.53;;;14.50;57.70;;;;;;5020062;28;20442;-87
2022/09/21 00:56:49;;;;;;;12.50;3.93;;;14.40;57.70;;;;;;5033899;28;21022;-87
2022/09/21 00:59:17;;;;;;;11.50;3.80;;;14.30;57.70;;;;;;5050941;28;20446;-88
2022/09/21 01:01:46;;;;;;;7.87;3.80;;;14.20;58.20;;;;;;5026376;28;20548;-88
2022/09/21 01:04:14;;;;;;;6.57;3.77;;;14.20;58.20;;;;;;5052804;28;20453;-89
2022/09/21 01:06:41;;;;;;;6.93;3.67;;;14.20;58.50;;;;;;5017329;28;20441;-88
2022/09/21 01:09:09;;;;;;;40.93;5.03;;;14.10;58.70;;;;;;5009553;28;20453;-88
2022/09/21 01:11:47;;;;;;;28.53;5.40;;;14.00;58.60;;;;;;5017321;28;20500;-90
2022/09/21 01:14:34;;;;;;;10.57;4.20;;;14.10;59.00;;;;;;5027878;28;20461;-88
2022/09/21 01:17:09;;;;;;;9.43;3.53;;;14.20;58.90;;;;;;5022107;28;20472;-88
2022/09/21 01:20:09;;;;;;;8.83;4.13;;;14.30;58.90;;;;;;5009662;28;20588;-88
2022/09/21 01:22:51;;;;;;;11.07;4.17;;;14.30;58.70;;;;;;5003150;28;20595;-89
2022/09/21 01:25:27;;;;;;;5.50;4.30;;;14.30;58.70;;;;;;5018801;28;20433;-87
2022/09/21 01:28:05;;;;;;;15.23;4.67;;;14.30;58.70;;;;;;5020192;28;20552;-88
2022/09/21 01:30:37;;;;;;;7.13;4.47;;;14.20;58.50;;;;;;5031464;28;20953;-88
2022/09/21 01:33:13;;;;;;;12.60;4.90;;;14.30;58.60;;;;;;5002440;28;20454;-87
2022/09/21 01:35:45;;;;;;;35.33;6.33;;;14.10;58.80;;;;;;5024901;28;20473;-88
2022/09/21 01:38:17;;;;;;;9.17;4.43;;;13.80;59.10;;;;;;5034058;28;21016;-88
2022/09/21 01:40:49;;;;;;;30.00;6.00;;;13.60;59.80;;;;;;5010074;28;21015;-88
2022/09/21 01:43:24;;;;;;;94.57;8.27;;;13.90;59.80;;;;;;5007959;28;20560;-87
2022/09/21 01:45:55;;;;;;;35.67;6.17;;;13.90;58.40;;;;;;5018021;28;20445;-87
2022/09/21 01:48:25;;;;;;;10.07;5.50;;;13.60;59.40;;;;;;5048991;28;20452;-88
2022/09/21 01:50:56;;;;;;;37.17;5.90;;;13.80;59.40;;;;;;5034360;28;20434;-88
2022/09/21 01:53:30;;;;;;;15.87;5.10;;;13.90;59.20;;;;;;5024302;28;20449;-88
2022/09/21 01:55:59;;;;;;;19.23;6.40;;;14.00;59.30;;;;;;5052818;28;20459;-87
2022/09/21 01:58:31;;;;;;;14.33;5.67;;;14.20;59.00;;;;;;5008270;28;20457;-88
2022/09/21 02:01:01;;;;;;;22.87;5.80;;;14.20;58.70;;;;;;5051598;28;20593;-88
2022/09/21 02:03:32;;;;;;;16.47;5.43;;;14.30;58.70;;;;;;5024065;28;20455;-88
2022/09/21 02:06:01;;;;;;;168.50;10.83;;;14.30;58.70;;;;;;5035751;28;20483;-88
2022/09/21 02:08:31;;;;;;;11.27;4.53;;;14.00;58.20;;;;;;5034316;28;20453;-87
2022/09/21 02:11:01;;;;;;;17.70;4.70;;;14.00;59.10;;;;;;5021618;28;20453;-88
2022/09/21 02:13:32;;;;;;;9.83;5.30;;;14.20;58.60;;;;;;5023219;28;20460;-88
2022/09/21 02:16:13;;;;;;;12.10;4.90;;;14.20;58.30;;;;;;5053311;28;20550;-88
2022/09/21 02:18:48;;;;;;;16.90;4.03;;;14.20;58.30;;;;;;5031380;28;20449;-88
2022/09/21 02:21:23;;;;;;;9.80;5.47;;;14.30;58.40;;;;;;5025667;28;20448;-89
2022/09/21 02:23:58;;;;;;;9.80;4.47;;;14.30;58.40;;;;;;5032214;28;20452;-88
2022/09/21 02:26:32;;;;;;;11.93;4.03;;;14.20;58.30;;;;;;5025469;28;20452;-88
2022/09/21 02:29:10;;;;;;;7.10;3.23;;;14.10;58.60;;;;;;5010527;28;20441;-88
2022/09/21 02:31:47;;;;;;;25.17;4.33;;;14.00;57.90;;;;;;5028479;28;20487;-87
2022/09/21 02:34:20;;;;;;;36.60;4.83;;;13.90;58.30;;;;;;5053256;28;21051;-88
2022/09/21 02:36:50;;;;;;;14.23;3.80;;;13.90;58.20;;;;;;5029176;28;20568;-88
2022/09/21 02:39:23;;;;;;;28.97;4.63;;;13.90;58.50;;;;;;5025586;28;21046;-86
2022/09/21 02:42:01;;;;;;;30.17;4.47;;;13.80;58.00;;;;;;5036765;28;20500;-88
2022/09/21 02:44:32;;;;;;;9.43;3.13;;;13.70;57.70;;;;;;5036357;28;20452;-89
2022/09/21 02:47:06;;;;;;;21.47;3.77;;;13.70;57.80;;;;;;5056039;28;20486;-87
2022/09/21 02:49:37;;;;;;;18.20;5.13;;;13.50;57.20;;;;;;5051501;28;20978;-88
2022/09/21 02:52:10;;;;;;;23.00;3.73;;;12.90;58.80;;;;;;5041585;28;20461;-87
2022/09/21 02:54:39;;;;;;;11.53;3.57;;;12.60;60.50;;;;;;5021429;28;20453;-88
2022/09/21 02:57:07;;;;;;;11.77;4.27;;;12.80;60.40;;;;;;5039401;28;20468;-88
2022/09/21 02:59:35;;;;;;;13.37;3.63;;;13.00;60.10;;;;;;5044663;28;20449;-87
2022/09/21 03:02:04;;;;;;;5.80;3.77;;;13.20;60.00;;;;;;5037395;28;20483;-88
2022/09/21 03:04:31;;;;;;;6.37;3.33;;;13.30;60.00;;;;;;5028305;28;20454;-89
2022/09/21 03:06:59;;;;;;;10.37;3.70;;;13.40;59.70;;;;;;5035073;28;20456;-87
2022/09/21 03:09:26;;;;;;;12.73;4.23;;;13.50;58.80;;;;;;5023983;28;20449;-89
2022/09/21 03:11:53;;;;;;;4.37;3.77;;;13.60;58.60;;;;;;5037780;28;21023;-86
2022/09/21 03:14:21;;;;;;;13.83;4.80;;;13.70;58.50;;;;;;5054186;28;20465;-88
2022/09/21 03:16:48;;;;;;;28.60;5.73;;;13.90;58.20;;;;;;5053783;28;20819;-88
2022/09/21 03:19:17;;;;;;;6.00;4.57;;;13.80;57.80;;;;;;5036110;28;20445;-88
2022/09/21 03:21:44;;;;;;;9.77;5.23;;;13.80;58.00;;;;;;5029207;28;21156;-88
2022/09/21 03:24:11;;;;;;;18.80;4.93;;;13.90;57.70;;;;;;5035009;28;20500;-87
2022/09/21 03:26:38;;;;;;;7.93;4.27;;;14.00;57.60;;;;;;5056403;28;20441;-88
2022/09/21 03:29:04;;;;;;;30.27;5.70;;;13.90;57.70;;;;;;5023660;28;20457;-88
2022/09/21 03:31:33;;;;;;;11.17;4.10;;;13.90;58.00;;;;;;5058121;28;20495;-88
2022/09/21 03:34:00;;;;;;;22.17;4.60;;;14.00;58.00;;;;;;5045149;28;21433;-87
2022/09/21 03:36:28;;;;;;;5.77;3.90;;;14.00;57.60;;;;;;5054305;28;20485;-89
2022/09/21 03:38:55;;;;;;;5.97;4.10;;;13.70;57.90;;;;;;5055631;28;20460;-88
2022/09/21 03:41:22;;;;;;;24.73;5.90;;;13.80;57.50;;;;;;5036000;28;20469;-87
2022/09/21 03:43:49;;;;;;;125.93;9.90;;;13.80;57.70;;;;;;5056523;28;20457;-88
2022/09/21 03:46:16;;;;;;;11.47;4.83;;;13.50;57.70;;;;;;5039310;28;20456;-88
2022/09/21 03:48:46;;;;;;;17.20;5.13;;;13.50;58.20;;;;;;5029086;28;21204;-88
2022/09/21 03:51:13;;;;;;;26.40;3.70;;;13.50;57.70;;;;;;5023585;28;20527;-88
2022/09/21 03:53:41;;;;;;;5.13;3.53;;;13.50;57.80;;;;;;5024061;28;20534;-88
2022/09/21 03:56:08;;;;;;;15.07;4.77;;;13.30;58.00;;;;;;5023257;28;20457;-89
2022/09/21 03:58:35;;;;;;;5.63;3.90;;;13.40;58.30;;;;;;5018545;28;20455;-87
2022/09/21 04:01:03;;;;;;;5.80;3.50;;;13.20;57.80;;;;;;5051713;28;20453;-87
2022/09/21 04:03:30;;;;;;;7.40;4.17;;;13.30;58.00;;;;;;5027453;28;20449;-88
2022/09/21 04:05:57;;;;;;;5.03;3.73;;;13.40;58.00;;;;;;5022717;28;20457;-88
2022/09/21 04:08:24;;;;;;;18.67;4.80;;;13.60;57.70;;;;;;5032629;28;20433;-85
2022/09/21 04:10:55;;;;;;;8.13;4.03;;;13.50;57.20;;;;;;5052860;28;20452;-88
2022/09/21 04:13:23;;;;;;;23.47;4.27;;;13.00;57.90;;;;;;5052894;28;20474;-88
2022/09/21 04:15:50;;;;;;;18.80;8.00;;;13.00;58.10;;;;;;5043713;28;20454;-88
2022/09/21 04:18:17;;;;;;;5.93;4.60;;;13.10;58.10;;;;;;5041737;28;20828;-87
2022/09/21 04:20:44;;;;;;;12.33;3.93;;;13.10;57.90;;;;;;5051166;28;20444;-88
2022/09/21 04:23:11;;;;;;;4.23;3.30;;;13.20;57.40;;;;;;5005748;28;20535;-87
2022/09/21 04:25:38;;;;;;;6.70;3.80;;;13.10;56.90;;;;;;5032946;28;20457;-88
2022/09/21 04:28:06;;;;;;;23.33;5.30;;;13.10;57.00;;;;;;5037700;28;20454;-87
2022/09/21 04:30:34;;;;;;;8.80;4.00;;;13.10;56.80;;;;;;5036145;28;20541;-88
2022/09/21 04:33:01;;;;;;;23.73;6.20;;;13.00;57.40;;;;;;5032070;28;20469;-87
2022/09/21 04:35:27;;;;;;;6.90;3.70;;;13.00;56.60;;;;;;5022474;28;21171;-88
2022/09/21 04:37:55;;;;;;;34.27;4.70;;;12.70;57.60;;;;;;4999029;28;20480;-87
2022/09/21 04:40:22;;;;;;;6.63;3.57;;;12.50;57.90;;;;;;5011895;28;20489;-87
2022/09/21 04:42:52;;;;;;;24.23;4.87;;;12.40;58.20;;;;;;5038289;28;21483;-87
2022/09/21 04:45:20;;;;;;;9.20;4.77;;;12.50;57.70;;;;;;5047809;28;20520;-88
2022/09/21 04:47:47;;;;;;;9.73;4.03;;;12.30;58.30;;;;;;5022411;28;20452;-88
2022/09/21 04:50:15;;;;;;;6.27;3.23;;;12.50;58.20;;;;;;5048017;28;20460;-90
2022/09/21 04:52:42;;;;;;;3.90;2.83;;;12.50;58.10;;;;;;5017616;28;20571;-87
2022/09/21 04:55:09;;;;;;;4.03;3.20;;;12.70;58.00;;;;;;5050144;28;20457;-88
2022/09/21 04:57:36;;;;;;;8.77;3.03;;;12.80;57.60;;;;;;5019389;28;20469;-87
2022/09/21 05:00:05;;;;;;;12.20;3.20;;;12.50;57.70;;;;;;5030356;28;20457;-86
2022/09/21 05:02:33;;;;;;;18.30;3.07;;;12.60;57.80;;;;;;5030119;28;20461;-87
2022/09/21 05:05:00;;;;;;;21.23;3.33;;;12.60;57.40;;;;;;5032359;28;20838;-86
2022/09/21 05:07:27;;;;;;;3.30;2.83;;;12.30;58.10;;;;;;5016744;28;20968;-87
2022/09/21 05:12:37;;;;;;;17.37;3.53;;;12.60;57.90;;;;;;5046534;28;20472;-87
2022/09/21 05:15:05;;;;;;;6.77;3.07;;;12.40;57.80;;;;;;5051171;28;20452;-87
2022/09/21 05:17:34;;;;;;;7.73;3.13;;;12.30;58.00;;;;;;5033448;28;21423;-87
2022/09/21 05:20:01;;;;;;;7.83;2.90;;;12.40;58.30;;;;;;5028522;28;20468;-88
2022/09/21 05:22:29;;;;;;;45.23;4.47;;;12.40;58.00;;;;;;5047833;28;20465;-89
2022/09/21 05:24:56;;;;;;;12.17;3.20;;;12.40;57.50;;;;;;5037438;28;20449;-88
2022/09/21 05:27:23;;;;;;;7.70;3.40;;;12.40;57.60;;;;;;5041541;28;20446;-88
2022/09/21 05:29:50;;;;;;;3.90;2.80;;;12.40;57.90;;;;;;5053260;28;20476;-87
2022/09/21 05:32:23;;;;;;;5.33;2.83;;;12.40;58.20;;;;;;5003029;28;20472;-89
2022/09/21 05:35:02;;;;;;;9.70;2.93;;;12.40;57.80;;;;;;5010110;28;20520;-89
2022/09/21 05:37:45;;;;;;;5.83;3.20;;;12.20;57.90;;;;;;5051405;28;20689;-88
2022/09/21 05:40:13;;;;;;;10.70;3.07;;;12.20;57.70;;;;;;5020573;28;20437;-89
2022/09/21 05:42:41;;;;;;;3.30;2.80;;;12.20;58.00;;;;;;5049279;28;20502;-88
2022/09/21 05:45:13;;;;;;;2.30;2.10;;;12.30;57.80;;;;;;5033433;28;20955;-89
2022/09/21 05:47:49;;;;;;;6.60;2.20;;;12.50;57.50;;;;;;5019799;28;20465;-88
2022/09/21 05:50:29;;;;;;;5.63;2.50;;;12.30;57.30;;;;;;5039690;28;20536;-88
2022/09/21 05:53:05;;;;;;;2.63;2.23;;;12.30;57.40;;;;;;5031709;28;20476;-90
2022/09/21 05:55:41;;;;;;;4.60;2.17;;;12.30;56.90;;;;;;5029559;28;20832;-88
2022/09/21 05:58:21;;;;;;;4.63;2.10;;;12.30;56.80;;;;;;5052226;28;20461;-89
2022/09/21 06:00:58;;;;;;;3.20;2.30;;;12.50;57.00;;;;;;5050864;28;21188;-89
2022/09/21 06:03:30;;;;;;;6.07;2.97;;;12.60;56.50;;;;;;5036060;28;20472;-88
2022/09/21 06:05:59;;;;;;;2.80;2.00;;;12.70;56.10;;;;;;5032050;28;21004;-88
2022/09/21 06:08:26;;;;;;;7.70;2.60;;;12.70;56.00;;;;;;5049684;28;20449;-90
2022/09/21 06:10:54;;;;;;;5.80;2.47;;;12.60;55.90;;;;;;5014760;28;20461;-89
2022/09/21 06:13:21;;;;;;;2.87;2.03;;;12.60;56.00;;;;;;5038742;28;20469;-89
2022/09/21 06:15:48;;;;;;;3.13;2.20;;;12.60;56.10;;;;;;5030208;28;20477;-87
2022/09/21 06:18:15;;;;;;;3.00;2.50;;;12.60;56.60;;;;;;5051726;28;20480;-88
2022/09/21 06:20:42;;;;;;;13.40;3.33;;;12.60;56.60;;;;;;5039372;28;20455;-88
2022/09/21 06:23:12;;;;;;;4.33;2.37;;;12.50;56.20;;;;;;5004390;28;20978;-88
2022/09/21 06:25:39;;;;;;;3.43;2.33;;;12.40;56.90;;;;;;5033302;28;20429;-88
2022/09/21 06:28:08;;;;;;;4.37;2.87;;;12.40;57.00;;;;;;5017736;28;20790;-88
2022/09/21 06:30:36;;;;;;;4.23;3.13;;;12.40;56.70;;;;;;5015095;28;20442;-88
2022/09/21 06:33:05;;;;;;;5.27;3.60;;;12.50;56.70;;;;;;5037608;28;20563;-88
2022/09/21 06:35:33;;;;;;;5.47;3.20;;;12.60;56.60;;;;;;5047883;28;21015;-89
2022/09/21 06:38:01;;;;;;;4.67;3.27;;;12.60;56.50;;;;;;5033418;28;20468;-89
2022/09/21 06:40:30;;;;;;;3.87;2.53;;;12.70;56.20;;;;;;5025028;28;20447;-88
2022/09/21 06:42:58;;;;;;;15.57;4.00;;;12.60;56.30;;;;;;5018534;28;20483;-88
2022/09/21 06:45:27;;;;;;;5.80;2.97;;;12.60;55.70;;;;;;5033327;28;20493;-89
2022/09/21 06:47:54;;;;;;;3.83;3.03;;;12.40;55.80;;;;;;5036673;28;20452;-87
2022/09/21 06:50:21;;;;;;;3.03;2.40;;;12.00;56.60;;;;;;5010259;28;20452;-89
2022/09/21 06:52:48;;;;;;;1.83;1.60;;;11.90;57.30;;;;;;5024090;28;20472;-88
2022/09/21 06:55:16;;;;;;;2.93;1.83;;;12.00;57.10;;;;;;5035154;28;20452;-89
2022/09/21 06:57:45;;;;;;;2.57;1.67;;;12.30;56.80;;;;;;5021350;28;20516;-89
2022/09/21 07:00:13;;;;;;;2.20;1.60;;;12.50;56.60;;;;;;5008102;28;20489;-89
2022/09/21 07:02:43;;;;;;;8.90;1.80;;;12.40;55.80;;;;;;5036476;28;21086;-88
2022/09/21 07:05:10;;;;;;;2.27;1.70;;;12.30;55.80;;;;;;5034474;28;20541;-89
2022/09/21 07:07:37;;;;;;;2.00;1.77;;;12.40;56.00;;;;;;5032135;28;20449;-89
2022/09/21 07:10:07;;;;;;;2.10;1.90;;;12.50;55.90;;;;;;5035744;28;20509;-90
2022/09/21 07:12:34;;;;;;;3.47;2.20;;;12.60;56.10;;;;;;5009177;28;20476;-88
2022/09/21 07:15:03;;;;;;;2.30;2.00;;;12.60;55.80;;;;;;5035346;28;20450;-88
2022/09/21 07:17:35;;;;;;;3.03;2.40;;;12.30;56.20;;;;;;5023811;28;20481;-87
2022/09/21 07:20:03;;;;;;;3.13;2.80;;;11.90;56.90;;;;;;5035557;28;20441;-89
2022/09/21 07:22:31;;;;;;;4.23;3.43;;;11.80;57.60;;;;;;5011612;28;20830;-87
2022/09/21 07:24:58;;;;;;;6.77;4.10;;;11.80;58.20;;;;;;5029138;28;20457;-89
2022/09/21 07:27:26;;;;;;;8.13;4.73;;;12.00;58.10;;;;;;5061008;28;20469;-90
2022/09/21 07:29:53;;;;;;;6.30;4.90;;;12.30;58.30;;;;;;5059029;28;20441;-88
2022/09/21 07:32:21;;;;;;;6.47;4.43;;;12.60;57.10;;;;;;5023035;28;20459;-89
2022/09/21 07:34:48;;;;;;;8.80;6.07;;;12.50;56.80;;;;;;5038117;28;20453;-89
2022/09/21 07:37:15;;;;;;;9.17;4.93;;;12.70;57.40;;;;;;5059297;28;20479;-87
2022/09/21 07:39:42;;;;;;;11.97;6.17;;;12.90;57.30;;;;;;5036517;28;20452;-88
2022/09/21 07:42:09;;;;;;;9.00;5.50;;;13.10;56.80;;;;;;5053726;28;20484;-88
2022/09/21 07:44:36;;;;;;;5.47;4.67;;;13.10;56.10;;;;;;5037340;28;20448;-89
2022/09/21 07:47:03;;;;;;;5.70;4.30;;;13.10;56.30;;;;;;5053148;28;20448;-88
2022/09/21 07:49:31;;;;;;;4.67;4.20;;;13.00;56.50;;;;;;5027616;28;20487;-89
2022/09/21 07:51:58;;;;;;;5.77;4.37;;;13.00;56.70;;;;;;5042568;28;20473;-89
2022/09/21 07:54:25;;;;;;;8.40;5.40;;;12.80;56.60;;;;;;5042463;28;20453;-87
2022/09/21 07:59:33;;;;;;;5.03;4.50;;;12.60;57.90;;;;;;5037912;28;20455;-89
2022/09/21 08:02:00;;;;;;;5.93;5.43;;;12.80;57.50;;;;;;5035606;28;20849;-89
2022/09/21 08:04:27;;;;;;;9.27;4.50;;;12.90;57.60;;;;;;5026195;28;20835;-89
2022/09/21 08:06:56;;;;;;;7.30;5.70;;;12.80;57.80;;;;;;5051872;28;20457;-90
2022/09/21 08:09:23;;;;;;;8.20;5.30;;;12.50;58.40;;;;;;5053833;28;20456;-89
2022/09/21 08:11:50;;;;;;;7.60;5.73;;;12.50;59.40;;;;;;4999297;28;21443;-88
2022/09/21 08:14:19;;;;;;;6.30;4.80;;;12.70;58.80;;;;;;5048252;28;20452;-87
2022/09/21 08:16:47;;;;;;;5.63;4.70;;;12.80;58.40;;;;;;5040523;28;20465;-89
2022/09/21 08:19:14;;;;;;;7.90;5.17;;;12.60;58.90;;;;;;5018585;28;20580;-88
2022/09/21 08:21:42;;;;;;;8.27;4.83;;;12.50;59.10;;;;;;5014136;28;20485;-88
2022/09/21 08:24:10;;;;;;;6.73;5.37;;;12.90;58.70;;;;;;5016234;28;21170;-90
2022/09/21 08:26:37;;;;;;;7.73;5.20;;;12.80;59.50;;;;;;5039355;28;20968;-89
2022/09/21 08:29:06;;;;;;;8.00;6.13;;;12.80;59.20;;;;;;5021092;28;20457;-89
2022/09/21 08:31:33;;;;;;;7.40;5.23;;;12.80;59.10;;;;;;5027342;28;20469;-89
2022/09/21 08:34:00;;;;;;;9.17;5.43;;;13.00;59.60;;;;;;5024765;28;20518;-89
2022/09/21 08:36:27;;;;;;;7.80;5.07;;;13.30;58.80;;;;;;5034208;28;20457;-90
2022/09/21 08:38:55;;;;;;;8.57;5.47;;;13.60;58.60;;;;;;5022694;28;20596;-90
2022/09/21 08:41:29;;;;;;;8.23;5.90;;;13.90;57.70;;;;;;5016291;28;20480;-88
2022/09/21 08:44:03;;;;;;;6.10;5.50;;;14.00;57.70;;;;;;5034028;28;20448;-88
2022/09/21 08:46:32;;;;;;;9.10;6.00;;;14.00;57.10;;;;;;5017849;28;20445;-88
2022/09/21 08:49:05;;;;;;;8.90;6.33;;;13.80;57.70;;;;;;5048120;28;20688;-89
2022/09/21 08:51:38;;;;;;;8.43;5.97;;;13.80;58.00;;;;;;5047707;28;20555;-89
2022/09/21 08:54:13;;;;;;;6.00;5.10;;;13.60;59.00;;;;;;5046428;28;20453;-89
2022/09/21 08:56:42;;;;;;;7.50;5.13;;;13.50;58.60;;;;;;5020903;28;20560;-88
2022/09/21 08:59:14;;;;;;;8.90;6.47;;;13.60;59.20;;;;;;5030654;28;20480;-90
2022/09/21 09:01:54;;;;;;;8.97;6.37;;;13.70;58.90;;;;;;5047171;28;20468;-89
2022/09/21 09:04:45;;;;;;;8.90;7.00;;;13.80;58.70;;;;;;5023345;28;20492;-89
2022/09/21 09:07:42;;;;;;;8.37;6.23;;;13.80;59.00;;;;;;5023287;28;20829;-89
2022/09/21 09:10:20;;;;;;;12.00;5.67;;;14.10;58.40;;;;;;5001978;28;20446;-89
2022/09/21 09:13:00;;;;;;;10.17;6.10;;;14.10;58.20;;;;;;5013734;28;20496;-87
2022/09/21 09:15:48;;;;;;;7.70;6.07;;;14.00;58.40;;;;;;5013907;28;20462;-87
2022/09/21 09:18:21;;;;;;;7.80;6.73;;;14.20;58.70;;;;;;5022565;28;20469;-89
2022/09/21 09:20:54;;;;;;;10.70;7.30;;;14.40;58.00;;;;;;5031589;28;21155;-88
2022/09/21 09:23:24;;;;;;;8.77;5.77;;;14.50;57.80;;;;;;5030232;28;20576;-89
2022/09/21 09:25:56;;;;;;;6.03;4.97;;;14.30;57.40;;;;;;5040386;28;20467;-88
2022/09/21 09:28:30;;;;;;;7.63;6.17;;;14.40;58.10;;;;;;5051478;28;20445;-88
2022/09/21 09:31:03;;;;;;;8.10;5.90;;;14.70;57.90;;;;;;5049953;28;20449;-88
2022/09/21 09:33:43;;;;;;;7.97;6.40;;;14.80;57.50;;;;;;5050338;28;20446;-87
2022/09/21 09:36:13;;;;;;;7.80;6.73;;;14.70;57.70;;;;;;5025035;28;20452;-89
2022/09/21 09:38:44;;;;;;;9.37;7.00;;;14.90;57.40;;;;;;5006224;28;20464;-89
2022/09/21 09:41:28;;;;;;;5.83;5.23;;;14.80;57.70;;;;;;5031106;28;20450;-91
2022/09/21 09:44:16;;;;;;;7.47;5.73;;;14.80;57.70;;;;;;5052871;28;20483;-89
2022/09/21 09:46:54;;;;;;;6.87;5.60;;;14.80;57.80;;;;;;5041171;28;20454;-87
2022/09/21 09:49:33;;;;;;;8.83;5.20;;;14.80;58.10;;;;;;5031786;28;20441;-87
2022/09/21 09:52:01;;;;;;;8.53;6.23;;;15.10;57.90;;;;;;5033071;28;20477;-88
2022/09/21 09:54:33;;;;;;;9.40;5.97;;;15.10;57.80;;;;;;5000321;28;20476;-88
2022/09/21 09:57:02;;;;;;;7.27;5.83;;;15.00;58.30;;;;;;5017362;28;20466;-90
2022/09/21 09:59:35;;;;;;;9.07;6.40;;;15.10;57.80;;;;;;5030355;28;20985;-88
2022/09/21 10:02:05;;;;;;;10.43;6.87;;;15.30;58.10;;;;;;5022647;28;20481;-89
2022/09/21 10:04:33;;;;;;;7.73;4.77;;;15.20;57.50;;;;;;5014580;28;20446;-87
2022/09/21 10:07:00;;;;;;;4.40;4.00;;;15.20;57.80;;;;;;5047772;28;20453;-87
2022/09/21 10:09:29;;;;;;;6.20;3.80;;;15.20;58.10;;;;;;5023742;28;20457;-89
2022/09/21 10:12:00;;;;;;;5.50;3.50;;;15.30;58.20;;;;;;5024236;28;20544;-89
2022/09/21 10:14:32;;;;;;;4.43;3.80;;;15.50;58.00;;;;;;5052155;28;20462;-89
2022/09/21 10:17:05;;;;;;;5.43;4.43;;;15.90;57.70;;;;;;5035364;28;20461;-90
2022/09/21 10:19:32;;;;;;;9.07;5.60;;;16.10;57.10;;;;;;5024066;28;20465;-89
2022/09/21 10:22:02;;;;;;;5.60;5.00;;;16.30;57.30;;;;;;5051816;28;20471;-88
2022/09/21 10:24:32;;;;;;;6.13;4.60;;;16.40;56.30;;;;;;5039322;28;20449;-89
2022/09/21 10:27:06;;;;;;;9.90;6.93;;;16.50;56.60;;;;;;5036637;28;21433;-89
2022/09/21 10:29:41;;;;;;;10.60;6.27;;;16.80;56.00;;;;;;5042366;28;21048;-89
2022/09/21 10:32:21;;;;;;;23.33;12.47;;;16.70;55.80;;;;;;4999646;28;20472;-89
2022/09/21 10:35:13;;;;;;;9.43;6.50;;;16.80;55.90;;;;;;5037218;28;20830;-88
2022/09/21 10:37:41;;;;;;;7.77;4.30;;;17.10;55.50;;;;;;5052127;28;20453;-90
2022/09/21 10:40:27;;;;;;;16.37;8.30;;;17.10;54.90;;;;;;5020083;28;20548;-89
2022/09/21 10:42:57;;;;;;;6.20;5.27;;;17.30;55.10;;;;;;5040069;28;20568;-89
2022/09/21 10:45:27;;;;;;;5.80;3.87;;;17.30;55.40;;;;;;5021336;28;20488;-91
2022/09/21 10:47:57;;;;;;;4.97;4.30;;;17.30;55.60;;;;;;5045828;28;21086;-89
2022/09/21 10:50:28;;;;;;;4.07;3.67;;;17.40;55.50;;;;;;5023883;28;20441;-90
2022/09/21 10:52:59;;;;;;;5.43;4.57;;;17.70;55.30;;;;;;5026102;28;20461;-90
2022/09/21 10:55:28;;;;;;;7.37;3.77;;;18.00;54.70;;;;;;5054962;28;20834;-91
2022/09/21 10:57:56;;;;;;;5.73;4.20;;;18.30;54.40;;;;;;5041842;28;21456;-90
2022/09/21 11:00:34;;;;;;;4.07;3.67;;;18.40;53.70;;;;;;5053690;28;20488;-88
2022/09/21 11:03:06;;;;;;;5.40;3.33;;;18.60;54.00;;;;;;5037776;28;20475;-89
2022/09/21 11:05:37;;;;;;;5.20;3.70;;;18.80;53.60;;;;;;5037477;28;20810;-90
2022/09/21 11:08:10;;;;;;;3.70;3.23;;;18.90;52.90;;;;;;5007649;28;20926;-89
2022/09/21 11:10:45;;;;;;;4.47;2.70;;;18.90;52.20;;;;;;5019010;28;20457;-89
2022/09/21 11:13:25;;;;;;;3.70;2.60;;;18.80;52.70;;;;;;5034205;28;20477;-90
2022/09/21 11:15:59;;;;;;;5.00;3.50;;;19.00;51.60;;;;;;5035666;28;20457;-90
2022/09/21 11:18:37;;;;;;;2.43;1.80;;;19.20;52.30;;;;;;5022963;28;20472;-89
2022/09/21 11:21:11;;;;;;;2.40;2.20;;;19.30;49.90;;;;;;5019075;28;20456;-88
2022/09/21 11:23:49;;;;;;;6.97;1.90;;;19.50;49.10;;;;;;5024290;28;21006;-89
2022/09/21 11:26:23;;;;;;;2.93;2.10;;;19.80;48.90;;;;;;5049182;28;20511;-89
2022/09/21 11:28:57;;;;;;;1.77;1.67;;;19.90;47.50;;;;;;5050218;28;20535;-88
2022/09/21 11:31:36;;;;;;;7.80;7.00;;;20.20;47.90;;;;;;5019953;28;20489;-87
2022/09/21 11:34:18;;;;;;;6.03;1.73;;;20.30;45.20;;;;;;5037014;28;20855;-88
2022/09/21 11:36:56;;;;;;;4.27;1.80;;;20.30;45.80;;;;;;5032347;28;20458;-87
2022/09/21 11:39:34;;;;;;;2.23;1.53;;;20.30;46.80;;;;;;5032092;28;20460;-88
2022/09/21 11:42:19;;;;;;;3.50;1.77;;;20.60;43.80;;;;;;5034005;28;20491;-89
2022/09/21 11:44:54;;;;;;;1.60;1.50;;;20.60;45.60;;;;;;5034608;28;20873;-88
2022/09/21 11:47:45;;;;;;;2.27;1.60;;;21.10;44.50;;;;;;5033614;28;20972;-88
2022/09/21 11:50:41;;;;;;;2.13;1.70;;;21.00;41.40;;;;;;5020164;28;21011;-90
2022/09/21 11:53:25;;;;;;;2.30;1.23;;;21.20;42.30;;;;;;5040882;28;20461;-89
2022/09/21 11:56:22;;;;;;;1.30;1.20;;;21.50;41.60;;;;;;5036054;28;20455;-90
2022/09/21 11:58:57;;;;;;;3.97;1.43;;;21.80;41.40;;;;;;5009721;28;20460;-90
2022/09/21 12:01:44;;;;;;;1.53;1.30;;;21.80;40.00;;;;;;5016902;28;21001;-89
2022/09/21 12:04:33;;;;;;;1.70;1.20;;;21.60;39.70;;;;;;5033821;28;20999;-89
2022/09/21 12:07:20;;;;;;;1.80;1.23;;;21.70;39.00;;;;;;5032991;28;20514;-88
2022/09/21 12:10:03;;;;;;;2.17;1.20;;;21.40;41.00;;;;;;5021612;28;20445;-89
2022/09/21 12:12:36;;;;;;;2.23;1.30;;;21.40;41.20;;;;;;5024010;28;20480;-89
2022/09/21 12:15:10;;;;;;;1.47;1.30;;;21.60;39.20;;;;;;5033398;28;20537;-90
2022/09/21 12:17:45;;;;;;;3.30;2.20;;;21.60;37.80;;;;;;5034327;28;20965;-89
2022/09/21 12:20:21;;;;;;;1.30;1.10;;;22.00;37.40;;;;;;5049060;28;20476;-89
2022/09/21 12:22:52;;;;;;;2.83;1.40;;;22.30;37.70;;;;;;5035536;28;20472;-88
2022/09/21 12:25:23;;;;;;;3.43;1.40;;;22.30;35.80;;;;;;5041155;28;20457;-90
2022/09/21 12:27:53;;;;;;;1.50;1.40;;;22.70;37.20;;;;;;5036424;28;20458;-90
2022/09/21 12:30:22;;;;;;;8.53;1.50;;;22.90;34.70;;;;;;5054619;28;20483;-90
2022/09/21 12:32:56;;;;;;;1.80;1.40;;;22.70;34.70;;;;;;5024747;28;20470;-89
2022/09/21 12:35:35;;;;;;;1.97;1.33;;;22.60;34.40;;;;;;5036178;28;20460;-89
2022/09/21 12:38:09;;;;;;;3.07;1.20;;;22.80;34.60;;;;;;5035531;28;20437;-90
2022/09/21 12:40:42;;;;;;;1.83;1.30;;;22.70;36.10;;;;;;5026032;28;20504;-89
2022/09/21 12:43:21;;;;;;;3.73;1.20;;;23.00;33.10;;;;;;5052505;28;20481;-89
2022/09/21 12:45:54;;;;;;;1.50;1.20;;;22.80;30.10;;;;;;5034626;28;20487;-89
2022/09/21 12:48:30;;;;;;;1.20;1.10;;;22.70;30.80;;;;;;5053640;28;21284;-89
2022/09/21 12:51:03;;;;;;;2.47;1.10;;;23.00;31.70;;;;;;5046773;28;20776;-88
2022/09/21 12:53:33;;;;;;;1.30;1.20;;;22.90;31.50;;;;;;5050182;28;20516;-88
2022/09/21 12:56:06;;;;;;;1.30;1.20;;;22.70;32.70;;;;;;5034248;28;20446;-89
2022/09/21 12:59:03;;;;;;;1.57;1.10;;;22.80;33.50;;;;;;5035312;28;20515;-89
2022/09/21 13:01:36;;;;;;;1.83;1.20;;;23.00;31.40;;;;;;5049377;28;20473;-87
2022/09/21 13:04:19;;;;;;;3.07;1.20;;;23.20;32.50;;;;;;5016094;28;20453;-89
2022/09/21 13:07:18;;;;;;;4.30;1.00;;;23.40;32.10;;;;;;5024539;28;20512;-88
2022/09/21 13:09:46;;;;;;;3.13;1.10;;;23.60;32.00;;;;;;5039099;28;20477;-89
2022/09/21 13:12:17;;;;;;;1.90;1.00;;;23.50;30.70;;;;;;5051690;28;20469;-89